Equality — ODTX — position and weather

sailwx.info

Track history (hours):
 
Tides and Currents Weather Stations Pressure Air Temp Water Temp Dewpoint Dewpoint Depression Visibility Wind Speed Wind Dir Waves Ship Positions

Equality

Last reported at 2016-Nov-24 21:26 UTC. Time now 2016-Dec-05 16:40 UTC.
Position N 36°19' E 014°51'.
Warning: this ship's position is 10 days out of date.

Length 124 m; draft 5.6 m.

Type: Cargo ship. MMSI: 450501000.

Date/timePositionNaut miles runAvg speedWind from/ knotsBaromVisibWave heightAir tempDewpointWater temp
2016-Nov-24 21:26N 36°19' E 014°51'910.2
2016-Nov-24 20:32N 36°22' E 014°41'1010.0
2016-Nov-24 19:33N 36°25' E 014°29'9 9.2
2016-Nov-24 18:32N 36°28' E 014°18'8 8.6
2016-Nov-24 17:33N 36°31' E 014°08'  
2016-Nov-20 12:33N 37°31' W 000°52'17310.8
2016-Nov-19 20:32N 39°45' E 001°29'1111.1
2016-Nov-19 19:33N 39°54' E 001°38'2211.1
2016-Nov-19 17:33N 40°11' E 001°56'1111.1
2016-Nov-19 16:33N 40°19' E 002°05'2210.9
2016-Nov-19 14:33N 40°36' E 002°23'3310.8
2016-Nov-19 11:28N 41°01' E 002°51'148 3.2
2016-Nov-17 13:30N 43°24' E 003°42'3 3.2
2016-Nov-17 12:33N 43°23' E 003°46'5 5.3
2016-Nov-17 11:33N 43°19' E 003°50'16 5.5
2016-Nov-17 08:33N 43°05' E 004°03'  
Track history (hours):
 
Tides and Currents Weather Stations Pressure Air Temp Water Temp Dewpoint Dewpoint Depression Visibility Wind Speed Wind Dir Waves Ship Positions

Equality

Last reported at 2016-Nov-24 21:26 UTC. Time now 2016-Dec-05 16:40 UTC.
Position N 36°19' E 014°51'.
Warning: this ship's position is 10 days out of date.

Length 124 m; draft 5.6 m.

Type: Cargo ship. MMSI: 450501000.

Date/timePositionNaut miles runAvg speedWind from/ knotsBaromVisibWave heightAir tempDewpointWater temp
2016-Nov-24 21:26N 36°19' E 014°51'910.2
2016-Nov-24 20:32N 36°22' E 014°41'1010.0
2016-Nov-24 19:33N 36°25' E 014°29'9 9.2
2016-Nov-24 18:32N 36°28' E 014°18'8 8.6
2016-Nov-24 17:33N 36°31' E 014°08'  
2016-Nov-20 12:33N 37°31' W 000°52'17310.8
2016-Nov-19 20:32N 39°45' E 001°29'1111.1
2016-Nov-19 19:33N 39°54' E 001°38'2211.1
2016-Nov-19 17:33N 40°11' E 001°56'1111.1
2016-Nov-19 16:33N 40°19' E 002°05'2210.9
2016-Nov-19 14:33N 40°36' E 002°23'3310.8
2016-Nov-19 11:28N 41°01' E 002°51'148 3.2
2016-Nov-17 13:30N 43°24' E 003°42'3 3.2
2016-Nov-17 12:33N 43°23' E 003°46'5 5.3
2016-Nov-17 11:33N 43°19' E 003°50'16 5.5
2016-Nov-17 08:33N 43°05' E 004°03'  

Dump ship's entire track history